Wednesday, February 20, 2019, 2:39 PM EST
Back to Local

KGSB, Seymour-johnson Air Force Base

Location: Goldsboro, NC, United States Lat: 35.333
Local Time: 2:39 PM EST (19:39 GMT) Lon: -77.967
Time Zone: US/Eastern Elev: 108 ft

Show me the last for .
Show Coded

Time T Td Feel RH Dir Speed Gust Alt SLP Vis Weather Sky Remarks
2019-02-20 14:19 45 43 41 93 50° 6 - 30.20 30.21 1 BR OVC004 None
2019-02-20 14:09 45 43 41 93 40° 7 - 30.20 30.21 2 BR OVC004 None
2019-02-20 13:56 44 42 40 93 50° 7 - 30.20 30.21 5 -RA OVC004 1-hr Precip Total: Trace
2019-02-20 13:53 45 43 41 93 40° 7 - 30.21 30.22 5 -RA OVC004 None
2019-02-20 13:29 45 41 41 87 30° 7 - 30.23 30.24 10 OVC004 None
2019-02-20 13:19 43 41 40 93 30° 5 - 30.24 30.25 10 OVC006 None
2019-02-20 12:56 43 42 39 93 50° 8 - 30.24 30.25 5 -RA OVC006 1-hr Precip Total: Trace
6-hr Precip Total (1pm): 0.08"
6-hr Min Temp (1pm): 36.9°F
6-hr Max Temp (1pm): 43.3°F
2019-02-20 12:53 43 41 37 93 50° 9 - 30.24 30.25 5 -RA OVC006 None
2019-02-20 11:56 41 39 36 93 70° 8 - 30.29 30.30 5 -RA OVC006 1-hr Precip Total: 0.02"
2019-02-20 11:28 41 37 35 86 50° 9 - 30.32 30.33 3 -RA OVC006 Pressure falling rapidly
2019-02-20 11:26 41 37 35 86 50° 10 - 30.32 - 9 OVC006 Pressure falling rapidly
2019-02-20 11:11 39 37 32 93 40° 10 - 30.34 30.35 10 OVC007 None
2019-02-20 11:08 39 37 33 93 40° 9 - 30.34 - 10 OVC006 None
2019-02-20 10:56 40 38 34 91 10° 9 - 30.35 30.36 9 OVC007 1-hr Precip Total: 0.01"
2019-02-20 10:53 39 37 33 93 20° 9 - 30.35 30.36 8 OVC007 None
2019-02-20 10:46 39 37 32 93 40° 10 - 30.34 30.35 5 -RA BR OVC007 None
2019-02-20 10:25 39 37 33 93 50° 9 - 30.35 30.36 6 -RA BR OVC008 None
2019-02-20 10:24 39 37 33 93 50° 9 - 30.35 30.36 6 BR OVC008 None
2019-02-20 09:56 38 36 31 91 40° 10 - 30.36 30.37 5 -RA BR OVC008 1-hr Precip Total: 0.05"
6-hr Precip Total (10am): 0.05"
2019-02-20 09:40 39 36 34 86 40° 7 - 30.37 30.38 10 -RA OVC008 None
2019-02-20 09:27 39 36 32 86 40° 10 - 30.36 30.37 10 OVC008 None
2019-02-20 08:56 38 36 32 89 50° 10 - 30.37 30.38 7 -RA OVC008 1-hr Precip Total: Trace
2019-02-20 08:43 37 36 30 93 70° 12 - 30.37 30.38 10 -RA OVC009 None
2019-02-20 07:56 37 34 31 87 40° 9 - 30.38 30.39 10 OVC009 None
2019-02-20 07:50 37 34 31 86 40° 8 - 30.38 30.39 10 OVC009 None
2019-02-20 06:56 37 34 30 86 60° 10 - 30.36 30.37 10 OVC010 6-hr Precip Total (7am): 0.00"
24-hr Precip Total (7am): 0.13"
2019-02-20 06:08 36 32 29 86 40° 9 - 30.39 30.40 10 BKN011 OVC025 None
2019-02-20 05:56 36 32 29 85 40° 9 - 30.40 30.41 10 SCT012 OVC025 None
2019-02-20 05:05 36 32 29 86 60° 9 - 30.38 30.39 10 BKN027 OVC070 None
2019-02-20 04:56 36 32 28 86 70° 10 - 30.39 30.40 10 SCT027 OVC070 1-hr Precip Total: Trace
2019-02-20 04:25 36 30 29 80 70° 9 - 30.40 30.41 10 FEW023 BKN065 None
2019-02-20 04:16 36 30 27 80 70° 13 - 30.39 30.40 10 -UP BKN060 Pressure falling rapidly
2019-02-20 03:56 36 30 28 80 40° 10 - 30.44 30.45 10 SCT050 BKN070 None
2019-02-20 02:56 36 31 29 81 70° 8 - 30.47 30.48 10 BKN046 OVC055 None
2019-02-20 01:56 36 32 30 85 50° 8 - 30.50 30.51 10 BKN075 None
2019-02-20 00:56 36 33 29 87 60° 9 - 30.53 30.54 10 SCT065 6-hr Precip Total (1am): 0.12"
6-hr Min Temp (1am): 36.1°F
6-hr Max Temp (1am): 40.8°F
2019-02-19 23:56 36 33 29 87 50° 9 - 30.56 30.57 10 SCT090 1-hr Precip Total: Trace
24-hr Min Temp (12am): 36.1°F
24-hr Max Temp (12am): 46.0°F
2019-02-19 22:56 37 34 30 89 70° 10 - 30.56 30.57 9 -RA BKN041 1-hr Precip Total: 0.05"
2019-02-19 22:50 37 34 32 86 70° 7 - 30.56 30.57 8 -RA FEW038 BKN046 None
2019-02-19 21:57 37 36 34 93 70° 5 - 30.57 30.58 10 -UP FEW046 None
2019-02-19 21:56 38 35 33 89 60° 6 - 30.58 30.59 10 FEW046 Pressure rising rapidly
1-hr Precip Total: 0.05"
6-hr Precip Total (10pm): 0.07"
2019-02-19 21:45 37 34 32 86 70° 7 - 30.54 30.55 10 SCT048 None
2019-02-19 21:44 37 34 32 86 70° 7 - 30.54 30.55 10 -UP SCT048 None
2019-02-19 20:56 39 34 33 81 60° 9 - 30.57 30.58 9 -RA FEW060 1-hr Precip Total: 0.02"
2019-02-19 20:14 41 34 38 75 40° 5 - 30.57 30.58 10 -RA FEW050 FEW060 Pressure rising rapidly
2019-02-19 19:56 41 36 35 82 90° 8 - 30.55 30.56 6 -RA BKN090 Pressure falling rapidly
2019-02-19 19:43 41 36 38 80 60° 5 - 30.57 30.58 6 -RA BKN090 None
2019-02-19 18:56 40 35 - 80 - Calm - 30.56 30.57 10 FEW100 1-hr Precip Total: Trace
6-hr Precip Total (7pm): 0.01"
6-hr Min Temp (7pm): 40.5°F
6-hr Max Temp (7pm): 44.6°F
2019-02-19 17:56 41 33 36 74 60° 7 - 30.55 30.56 6 -RA BKN095 1-hr Precip Total: 0.01"
2019-02-19 17:15 41 32 38 70 50° 5 - 30.56 30.57 6 -RA BKN085 Pressure rising rapidly
2019-02-19 16:56 42 31 37 66 30° 8 - 30.54 30.55 6 -RAPL BKN075 1-hr Precip Total: Trace
2019-02-19 16:20 43 30 37 60 50° 10 - 30.52 30.53 5 -RAPL FEW090 None
2019-02-19 16:10 43 28 37 56 20° 12 - 30.53 30.54 10 -RA FEW070 SCT095 Pressure rising rapidly
2019-02-19 15:56 44 30 40 57 70° 7 - 30.51 30.52 10 BKN095 1-hr Precip Total: Trace
6-hr Precip Total (4pm): 0.00"
2019-02-19 15:50 45 30 41 56 70° 7 - 30.51 30.52 10 SCT095 None
2019-02-19 15:39 45 30 40 56 70° 9 - 30.50 30.51 10 -RA FEW100 None
2019-02-19 14:56 44 28 39 53 60° 9 - 30.51 30.52 10 SCT110 None

Support USWX by starting your Amazon purchase here.